createdAt,value
2023-11-02T00:02:30.867Z,13.60
2023-11-02T00:05:00.080Z,13.59
2023-11-02T00:07:32.768Z,13.58
2023-11-02T00:10:04.647Z,13.59
2023-11-02T00:12:35.414Z,13.59
2023-11-02T00:15:08.362Z,13.58
2023-11-02T00:17:52.338Z,13.58
2023-11-02T00:20:39.201Z,13.58
2023-11-02T00:23:13.856Z,13.57
2023-11-02T00:25:51.109Z,13.57
2023-11-02T00:28:22.079Z,13.54
2023-11-02T00:30:53.136Z,13.52
2023-11-02T00:33:24.795Z,13.50
2023-11-02T00:35:56.275Z,13.48
2023-11-02T00:38:29.553Z,13.44
2023-11-02T00:41:00.781Z,13.37
2023-11-02T00:43:32.352Z,13.33
2023-11-02T00:46:03.338Z,13.28
2023-11-02T00:48:35.966Z,13.23
2023-11-02T00:51:21.029Z,13.18
2023-11-02T00:53:55.613Z,13.19
2023-11-02T00:56:29.687Z,13.21
2023-11-02T00:59:01.563Z,13.26
2023-11-02T01:01:33.042Z,13.27
2023-11-02T01:04:08.598Z,13.29
2023-11-02T01:06:39.873Z,13.31
2023-11-02T01:09:45.751Z,13.33
2023-11-02T01:12:25.658Z,13.33
2023-11-02T01:14:57.026Z,13.32
2023-11-02T01:17:34.083Z,13.29
2023-11-02T01:20:11.290Z,13.28
2023-11-02T01:23:04.317Z,13.26
2023-11-02T01:25:45.839Z,13.24
2023-11-02T01:28:19.638Z,13.24
2023-11-02T01:31:16.194Z,13.21
2023-11-02T01:34:01.452Z,13.18
2023-11-02T01:36:37.689Z,13.16
2023-11-02T01:39:47.752Z,13.15
2023-11-02T01:42:27.241Z,13.14
2023-11-02T01:45:10.405Z,13.14
2023-11-02T01:48:00.355Z,13.13
2023-11-02T01:50:36.370Z,13.13
2023-11-02T01:53:26.418Z,13.14
2023-11-02T01:56:17.811Z,13.15
2023-11-02T01:59:05.181Z,13.15
2023-11-02T02:01:44.621Z,13.14
2023-11-02T02:04:24.130Z,13.15
2023-11-02T02:07:06.819Z,13.13
2023-11-02T02:10:06.705Z,13.15
2023-11-02T02:12:51.087Z,13.14
2023-11-02T02:15:27.629Z,13.15
2023-11-02T02:18:06.799Z,13.11
2023-11-02T02:20:39.694Z,13.08
2023-11-02T02:23:16.959Z,13.04
2023-11-02T02:26:00.490Z,13.03
2023-11-02T02:29:06.602Z,13.02
2023-11-02T02:32:00.237Z,13.01
2023-11-02T02:35:02.588Z,12.99
2023-11-02T02:37:36.681Z,12.98
2023-11-02T02:40:14.280Z,12.95
2023-11-02T02:42:47.760Z,12.93
2023-11-02T02:45:19.194Z,12.93
2023-11-02T02:47:53.051Z,12.88
2023-11-02T02:50:29.400Z,12.90
2023-11-02T02:53:02.012Z,12.88
2023-11-02T02:55:35.768Z,12.85
2023-11-02T02:58:10.878Z,12.80
2023-11-02T03:00:44.360Z,12.76
2023-11-02T03:03:17.506Z,12.74
2023-11-02T03:05:48.366Z,12.73
2023-11-02T03:08:20.130Z,12.74
2023-11-02T03:10:53.193Z,12.73
2023-11-02T03:13:29.539Z,12.71
2023-11-02T03:16:08.750Z,12.70
2023-11-02T03:18:41.075Z,12.66
2023-11-02T03:21:12.343Z,12.64
2023-11-02T03:23:59.677Z,12.63
2023-11-02T03:26:39.538Z,12.59
2023-11-02T03:29:20.248Z,12.55
2023-11-02T03:31:59.609Z,12.50
2023-11-02T03:34:39.434Z,12.42
2023-11-02T03:37:17.923Z,12.37
2023-11-02T03:40:09.241Z,12.36
2023-11-02T03:42:51.459Z,12.34
2023-11-02T03:45:34.124Z,12.29
2023-11-02T03:48:13.253Z,12.25
2023-11-02T03:50:53.279Z,12.22
2023-11-02T03:53:36.087Z,12.16
2023-11-02T03:56:19.215Z,12.15
2023-11-02T03:59:03.144Z,12.15
2023-11-02T04:01:41.453Z,12.05
2023-11-02T04:04:17.235Z,12.02
2023-11-02T04:06:54.114Z,12.00
2023-11-02T04:09:27.003Z,11.98
2023-11-02T04:12:15.318Z,11.98
2023-11-02T04:14:46.795Z,11.98
2023-11-02T04:17:17.565Z,12.00
2023-11-02T04:19:48.450Z,12.00
2023-11-02T04:22:19.302Z,11.98
2023-11-02T04:24:50.216Z,11.98
2023-11-02T04:27:21.074Z,11.98
2023-11-02T04:29:51.929Z,11.98
2023-11-02T04:32:22.903Z,11.99
2023-11-02T04:34:54.000Z,11.99
2023-11-02T04:37:24.604Z,11.96
2023-11-02T04:39:55.610Z,11.95
2023-11-02T04:42:26.359Z,11.94
2023-11-02T04:44:57.402Z,11.95
2023-11-02T04:47:28.163Z,11.94
2023-11-02T04:50:00.248Z,11.91
2023-11-02T04:52:39.192Z,11.91
2023-11-02T04:55:10.783Z,11.91
2023-11-02T04:57:41.600Z,11.92
2023-11-02T05:00:15.131Z,11.88
2023-11-02T05:02:46.037Z,11.87
2023-11-02T05:05:17.009Z,11.86
2023-11-02T05:07:47.641Z,11.86
2023-11-02T05:10:18.269Z,11.86
2023-11-02T05:12:48.981Z,11.84
2023-11-02T05:15:19.654Z,11.83
2023-11-02T05:17:50.358Z,11.80
2023-11-02T05:20:24.783Z,11.78
2023-11-02T05:22:55.450Z,11.76
2023-11-02T05:25:26.182Z,11.73
2023-11-02T05:27:56.945Z,11.75
2023-11-02T05:30:27.827Z,11.72
2023-11-02T05:32:58.473Z,11.63
2023-11-02T05:35:29.303Z,11.62
2023-11-02T05:38:01.559Z,11.62
2023-11-02T05:40:32.230Z,11.62
2023-11-02T05:43:02.953Z,11.62
2023-11-02T05:45:36.563Z,11.63
2023-11-02T05:48:08.078Z,11.63
2023-11-02T05:50:40.051Z,11.62
2023-11-02T05:53:10.800Z,11.61
2023-11-02T05:55:41.667Z,11.62
2023-11-02T05:58:12.462Z,11.64
2023-11-02T06:00:43.266Z,11.66
2023-11-02T06:03:14.070Z,11.68
2023-11-02T06:05:44.841Z,11.67
2023-11-02T06:08:15.850Z,11.64
2023-11-02T06:10:47.564Z,11.64
2023-11-02T06:13:18.312Z,11.62
2023-11-02T06:15:49.143Z,11.61
2023-11-02T06:18:19.906Z,11.59
2023-11-02T06:20:50.607Z,11.58
2023-11-02T06:23:25.546Z,11.58
2023-11-02T06:25:56.418Z,11.57
2023-11-02T06:28:30.818Z,11.57
2023-11-02T06:31:06.755Z,11.60
2023-11-02T06:33:38.319Z,11.65
2023-11-02T06:36:10.748Z,11.67
2023-11-02T06:38:41.971Z,11.71
2023-11-02T06:41:12.852Z,11.74
2023-11-02T06:43:46.090Z,11.76
2023-11-02T06:46:16.865Z,11.78
2023-11-02T06:48:50.629Z,11.77
2023-11-02T06:51:22.353Z,11.79
2023-11-02T06:53:53.068Z,11.77
2023-11-02T06:56:26.715Z,11.79
2023-11-02T06:58:57.419Z,11.83
2023-11-02T07:01:28.297Z,11.85
2023-11-02T07:03:59.659Z,11.84
2023-11-02T07:06:30.398Z,11.84
2023-11-02T07:09:01.242Z,11.85
2023-11-02T07:11:32.770Z,11.87
2023-11-02T07:14:03.933Z,12.02
2023-11-02T07:16:34.635Z,12.20
2023-11-02T07:19:06.003Z,12.41
2023-11-02T07:21:36.802Z,12.65
2023-11-02T07:24:09.192Z,12.79
2023-11-02T07:26:40.479Z,12.81
2023-11-02T07:29:11.302Z,12.70
2023-11-02T07:31:46.142Z,12.70
2023-11-02T07:34:19.338Z,12.72
2023-11-02T07:36:50.827Z,12.67
2023-11-02T07:39:21.598Z,12.59
2023-11-02T07:41:52.396Z,12.53
2023-11-02T07:44:23.596Z,12.57
2023-11-02T07:46:54.242Z,12.56
2023-11-02T07:49:25.224Z,12.51
2023-11-02T07:51:55.874Z,12.50
2023-11-02T07:54:26.503Z,12.46
2023-11-02T07:56:57.141Z,12.65
2023-11-02T07:59:27.814Z,12.70
2023-11-02T08:01:58.669Z,12.68
2023-11-02T08:04:29.407Z,12.59
2023-11-02T08:07:00.418Z,12.48
2023-11-02T08:09:31.190Z,12.42
2023-11-02T08:12:01.943Z,12.51
2023-11-02T08:14:32.705Z,12.63
2023-11-02T08:17:04.860Z,12.72
2023-11-02T08:19:35.935Z,12.86
2023-11-02T08:22:07.209Z,12.97
2023-11-02T08:24:39.132Z,12.97
2023-11-02T08:27:12.599Z,12.94
2023-11-02T08:29:43.546Z,12.92
2023-11-02T08:32:14.270Z,12.89
2023-11-02T08:34:46.557Z,12.84
2023-11-02T08:37:17.173Z,12.80
2023-11-02T08:39:47.924Z,12.76
2023-11-02T08:42:19.074Z,12.72
2023-11-02T08:44:50.133Z,12.69
2023-11-02T08:47:20.746Z,12.68
2023-11-02T08:49:51.475Z,12.67
2023-11-02T08:52:22.650Z,12.67
2023-11-02T08:54:53.398Z,12.65
2023-11-02T08:57:24.423Z,12.66
2023-11-02T08:59:57.424Z,12.66
2023-11-02T09:02:30.911Z,12.64
2023-11-02T09:05:00.975Z,12.61
2023-11-02T09:07:32.400Z,12.57
2023-11-02T09:10:04.512Z,12.54
2023-11-02T09:12:35.300Z,12.49
2023-11-02T09:15:07.391Z,12.44
2023-11-02T09:17:38.044Z,12.40
2023-11-02T09:20:11.641Z,12.39
2023-11-02T09:22:44.445Z,12.38
2023-11-02T09:25:15.182Z,12.40
2023-11-02T09:27:48.962Z,12.44
2023-11-02T09:30:20.319Z,12.57
2023-11-02T09:32:51.117Z,12.83
2023-11-02T09:35:23.743Z,13.12
2023-11-02T09:37:52.885Z,13.23
2023-11-02T09:40:23.625Z,13.29
2023-11-02T09:42:54.594Z,13.27
2023-11-02T09:45:25.452Z,13.22
2023-11-02T09:47:57.664Z,13.26
2023-11-02T09:50:28.912Z,13.36
2023-11-02T09:53:02.161Z,13.52
2023-11-02T09:55:34.205Z,13.78
2023-11-02T09:58:06.568Z,14.00
2023-11-02T10:00:40.040Z,14.12
2023-11-02T10:03:12.462Z,14.06
2023-11-02T10:05:43.429Z,14.18
2023-11-02T10:08:17.553Z,14.15
2023-11-02T10:10:49.457Z,14.02
2023-11-02T10:13:21.089Z,13.91
2023-11-02T10:15:53.105Z,13.79
2023-11-02T10:18:28.012Z,13.70
2023-11-02T10:21:05.213Z,13.68
2023-11-02T10:23:55.374Z,13.70
2023-11-02T10:26:29.825Z,13.75
2023-11-02T10:29:03.458Z,13.74
2023-11-02T10:31:35.497Z,13.69
2023-11-02T10:34:10.564Z,13.63
2023-11-02T10:36:41.696Z,13.57
2023-11-02T10:39:14.178Z,13.56
2023-11-02T10:41:43.638Z,13.59
2023-11-02T10:44:16.331Z,13.64
2023-11-02T10:46:48.606Z,13.69
2023-11-02T10:49:20.418Z,13.74
2023-11-02T10:51:54.701Z,13.71
2023-11-02T10:54:34.934Z,13.67
2023-11-02T10:57:15.892Z,13.65
2023-11-02T10:59:47.544Z,13.64
2023-11-02T11:02:20.370Z,13.65
2023-11-02T11:04:51.748Z,13.64
2023-11-02T11:07:23.552Z,13.62
2023-11-02T11:09:55.921Z,13.60
2023-11-02T11:12:27.573Z,13.58
2023-11-02T11:15:00.296Z,13.58
2023-11-02T11:17:31.021Z,13.58
2023-11-02T11:20:02.118Z,13.57
2023-11-02T11:22:36.546Z,13.55
2023-11-02T11:25:08.667Z,13.55
2023-11-02T11:27:40.876Z,13.55
2023-11-02T11:30:39.245Z,13.53
2023-11-02T11:33:39.541Z,13.52
2023-11-02T11:36:28.589Z,13.52
2023-11-02T11:38:59.921Z,13.54
2023-11-02T11:41:47.671Z,13.56
2023-11-02T11:44:22.293Z,13.58
2023-11-02T11:46:56.935Z,13.59
2023-11-02T11:49:49.601Z,13.60
2023-11-02T11:52:29.341Z,13.61
2023-11-02T11:55:00.057Z,13.60
2023-11-02T11:57:56.301Z,13.59
2023-11-02T12:00:28.734Z,13.55
2023-11-02T12:03:05.508Z,13.55
2023-11-02T12:05:57.204Z,13.56
2023-11-02T12:08:28.241Z,13.58
2023-11-02T12:11:01.253Z,13.60
2023-11-02T12:13:32.187Z,13.61
2023-11-02T12:16:05.318Z,13.61
2023-11-02T12:18:38.442Z,13.59
2023-11-02T12:21:18.493Z,13.60
2023-11-02T12:23:51.551Z,13.60
2023-11-02T12:26:25.525Z,13.63
2023-11-02T12:29:00.860Z,13.63
2023-11-02T12:31:34.480Z,13.63
2023-11-02T12:34:09.585Z,13.64
2023-11-02T12:36:42.697Z,13.66
2023-11-02T12:39:16.795Z,13.65
2023-11-02T12:41:49.010Z,13.65
2023-11-02T12:44:21.369Z,13.61
2023-11-02T12:46:54.459Z,13.58
2023-11-02T12:49:27.743Z,13.54
2023-11-02T12:52:10.959Z,13.51
2023-11-02T12:54:41.882Z,13.49
2023-11-02T12:57:13.652Z,13.46
2023-11-02T12:59:47.498Z,13.44
2023-11-02T13:02:28.335Z,13.41
2023-11-02T13:05:00.768Z,13.39
2023-11-02T13:07:32.493Z,13.35
2023-11-02T13:10:07.751Z,13.32
2023-11-02T13:12:40.765Z,13.30
2023-11-02T13:15:14.042Z,13.29
2023-11-02T13:17:48.557Z,13.29
2023-11-02T13:20:20.295Z,13.29
2023-11-02T13:22:51.942Z,13.27
2023-11-02T13:25:22.906Z,13.27
2023-11-02T13:27:55.594Z,13.27
2023-11-02T13:30:28.077Z,13.28
2023-11-02T13:32:59.359Z,13.29
2023-11-02T13:35:31.535Z,13.29
2023-11-02T13:38:02.264Z,13.28
2023-11-02T13:40:33.441Z,13.26
2023-11-02T13:43:04.124Z,13.26
2023-11-02T13:45:36.888Z,13.26
2023-11-02T13:48:08.197Z,13.26
2023-11-02T13:50:39.270Z,13.24
2023-11-02T13:53:10.033Z,13.24
2023-11-02T13:55:43.768Z,13.22
2023-11-02T13:58:15.274Z,13.18
2023-11-02T14:00:46.310Z,13.17
2023-11-02T14:03:17.468Z,13.14
2023-11-02T14:05:49.100Z,13.11
2023-11-02T14:08:23.069Z,13.09
2023-11-02T14:10:54.276Z,13.06
2023-11-02T14:13:26.062Z,13.04
2023-11-02T14:15:56.759Z,13.04
2023-11-02T14:18:27.550Z,13.03
2023-11-02T14:20:59.389Z,13.01
2023-11-02T14:23:30.353Z,13.00
2023-11-02T14:26:01.199Z,12.99
2023-11-02T14:28:33.667Z,12.99
2023-11-02T14:31:04.741Z,12.99
2023-11-02T14:33:36.368Z,12.99
2023-11-02T14:36:10.257Z,12.99
2023-11-02T14:38:41.280Z,12.99
2023-11-02T14:41:13.376Z,13.01
2023-11-02T14:43:44.094Z,13.00
2023-11-02T14:46:14.848Z,13.00
2023-11-02T14:48:45.601Z,12.99
2023-11-02T14:51:16.646Z,12.97
2023-11-02T14:53:47.325Z,12.96
2023-11-02T14:56:19.408Z,12.94
2023-11-02T14:58:50.264Z,12.94
2023-11-02T15:01:20.978Z,12.93
2023-11-02T15:03:52.100Z,12.92
2023-11-02T15:06:23.559Z,12.91
2023-11-02T15:09:01.484Z,12.89
2023-11-02T15:11:38.795Z,12.87
2023-11-02T15:14:15.558Z,12.87
2023-11-02T15:16:47.843Z,12.86
2023-11-02T15:19:18.882Z,12.84
2023-11-02T15:21:49.752Z,12.82
2023-11-02T15:24:22.355Z,12.81
2023-11-02T15:26:52.351Z,12.80
2023-11-02T15:29:23.070Z,12.79
2023-11-02T15:31:54.119Z,12.77
2023-11-02T15:34:56.533Z,12.73
2023-11-02T15:37:49.927Z,12.71
2023-11-02T15:40:37.994Z,12.71
2023-11-02T15:43:31.417Z,12.71
2023-11-02T15:46:30.683Z,12.72
2023-11-02T15:49:33.512Z,12.71
2023-11-02T15:52:43.423Z,12.71
2023-11-02T15:58:36.623Z,12.70
2023-11-02T16:04:41.320Z,12.69
2023-11-02T16:08:25.771Z,12.69
2023-11-02T16:11:15.960Z,12.66
2023-11-02T16:17:24.395Z,12.69
2023-11-02T16:19:55.362Z,12.69
2023-11-02T16:26:30.191Z,12.68
2023-11-02T16:30:25.931Z,12.70
2023-11-02T16:32:56.968Z,12.69
2023-11-02T16:35:56.503Z,12.69
2023-11-02T16:42:20.455Z,12.70
2023-11-02T16:45:42.068Z,12.69
2023-11-02T16:48:23.041Z,12.67
2023-11-02T16:51:23.844Z,12.52
2023-11-02T16:57:13.624Z,12.55
2023-11-02T16:59:45.325Z,12.51
2023-11-02T17:05:53.413Z,12.42
2023-11-02T17:08:47.213Z,12.38
2023-11-02T17:11:29.073Z,12.35
2023-11-02T17:14:32.429Z,12.33
2023-11-02T17:17:11.036Z,12.30
2023-11-02T17:19:45.056Z,12.29
2023-11-02T17:22:24.929Z,12.27
2023-11-02T17:24:56.260Z,12.25
2023-11-02T17:27:27.097Z,12.23
2023-11-02T17:29:58.882Z,12.21
2023-11-02T17:32:57.705Z,12.18
2023-11-02T17:35:53.693Z,12.16
2023-11-02T17:38:34.201Z,12.12
2023-11-02T17:41:07.947Z,12.10
2023-11-02T17:43:41.112Z,12.07
2023-11-02T17:46:15.858Z,12.02
2023-11-02T17:49:20.884Z,11.97
2023-11-02T17:51:54.794Z,11.87
2023-11-02T17:55:12.024Z,11.68
2023-11-02T17:58:17.349Z,11.81
2023-11-02T18:04:02.903Z,11.71
2023-11-02T18:06:34.076Z,11.77
2023-11-02T18:09:05.691Z,11.75
2023-11-02T18:11:36.385Z,11.74
2023-11-02T18:14:07.428Z,11.75
2023-11-02T18:16:38.406Z,11.75
2023-11-02T18:19:09.156Z,11.71
2023-11-02T18:21:40.726Z,11.75
2023-11-02T18:24:12.491Z,11.75
2023-11-02T18:26:44.027Z,11.76
2023-11-02T18:29:14.846Z,11.76
2023-11-02T18:31:45.646Z,11.76
2023-11-02T18:34:17.863Z,11.75
2023-11-02T18:36:49.668Z,11.75
2023-11-02T18:39:20.370Z,11.75
2023-11-02T18:41:51.325Z,11.75
2023-11-02T18:44:22.223Z,11.74
2023-11-02T18:46:53.077Z,11.75
2023-11-02T18:49:24.655Z,11.74
2023-11-02T18:51:55.636Z,11.71
2023-11-02T18:54:28.184Z,11.69
2023-11-02T18:56:58.884Z,11.67
2023-11-02T18:59:29.546Z,11.66
2023-11-02T19:02:00.237Z,11.67
2023-11-02T19:04:31.237Z,11.67
2023-11-02T19:07:01.942Z,11.68
2023-11-02T19:09:32.725Z,11.68
2023-11-02T19:12:03.519Z,11.64
2023-11-02T19:14:35.619Z,11.63
2023-11-02T19:17:07.018Z,11.63
2023-11-02T19:19:39.366Z,11.64
2023-11-02T19:22:10.554Z,11.65
2023-11-02T19:24:44.449Z,11.66
2023-11-02T19:27:17.105Z,11.67
2023-11-02T19:29:48.778Z,11.68
2023-11-02T19:32:21.475Z,11.70
2023-11-02T19:34:52.620Z,11.70
2023-11-02T19:37:23.430Z,11.71
2023-11-02T19:39:54.497Z,11.72
2023-11-02T19:42:25.439Z,11.73
2023-11-02T19:44:56.245Z,11.73
2023-11-02T19:47:27.002Z,11.74
2023-11-02T19:49:58.027Z,11.75
2023-11-02T19:52:28.763Z,11.75
2023-11-02T19:54:59.545Z,11.76
2023-11-02T19:57:30.425Z,11.75
2023-11-02T20:00:01.373Z,11.75
2023-11-02T20:02:32.062Z,11.76
2023-11-02T20:05:04.172Z,11.76
2023-11-02T20:07:35.477Z,11.76
2023-11-02T20:10:07.989Z,11.76
2023-11-02T20:12:40.048Z,11.75
2023-11-02T20:15:14.146Z,11.74
2023-11-02T20:17:44.961Z,11.73
2023-11-02T20:20:16.527Z,11.69
2023-11-02T20:22:47.349Z,11.64
2023-11-02T20:25:19.692Z,11.62
2023-11-02T20:27:50.435Z,11.61
2023-11-02T20:30:21.247Z,11.60
2023-11-02T20:32:51.895Z,11.59
2023-11-02T20:35:22.627Z,11.57
2023-11-02T20:37:53.280Z,11.57
2023-11-02T20:40:23.912Z,11.57
2023-11-02T20:42:54.847Z,11.54
2023-11-02T20:45:25.687Z,11.54
2023-11-02T20:47:56.580Z,11.54
2023-11-02T20:50:27.612Z,11.53
2023-11-02T20:52:58.329Z,11.51
2023-11-02T20:55:29.005Z,11.48
2023-11-02T20:58:00.761Z,11.47
2023-11-02T21:00:39.949Z,11.45
2023-11-02T21:03:18.454Z,11.43
2023-11-02T21:05:49.946Z,11.38
2023-11-02T21:08:20.874Z,11.33
2023-11-02T21:10:51.632Z,11.31
2023-11-02T21:13:22.981Z,11.32
2023-11-02T21:15:53.732Z,11.33
2023-11-02T21:18:25.684Z,11.34
2023-11-02T21:20:56.749Z,11.36
2023-11-02T21:23:27.546Z,11.37
2023-11-02T21:25:58.453Z,11.38
2023-11-02T21:28:29.432Z,11.38
2023-11-02T21:31:00.265Z,11.36
2023-11-02T21:33:31.260Z,11.32
2023-11-02T21:36:02.699Z,11.30
2023-11-02T21:38:33.521Z,11.29
2023-11-02T21:41:04.729Z,11.29
2023-11-02T21:43:35.570Z,11.29
2023-11-02T21:46:07.042Z,11.28
2023-11-02T21:48:37.906Z,11.29
2023-11-02T21:51:09.269Z,11.32
2023-11-02T21:53:40.015Z,11.35
2023-11-02T21:56:11.574Z,11.38
2023-11-02T21:58:42.757Z,11.40
2023-11-02T22:01:16.847Z,11.41
2023-11-02T22:03:49.778Z,11.42
2023-11-02T22:06:21.710Z,11.43
2023-11-02T22:08:52.516Z,11.43
2023-11-02T22:11:23.265Z,11.42
2023-11-02T22:13:54.102Z,11.42
2023-11-02T22:16:24.878Z,11.42
2023-11-02T22:18:56.124Z,11.43
2023-11-02T22:21:28.325Z,11.43
2023-11-02T22:23:59.426Z,11.42
2023-11-02T22:26:30.424Z,11.42
2023-11-02T22:29:01.702Z,11.41
2023-11-02T22:31:32.445Z,11.41
2023-11-02T22:34:03.532Z,11.37
2023-11-02T22:36:35.341Z,11.34
2023-11-02T22:39:07.664Z,11.31
2023-11-02T22:41:44.626Z,11.27
2023-11-02T22:44:15.785Z,11.25
2023-11-02T22:46:46.671Z,11.24
2023-11-02T22:49:17.385Z,11.26
2023-11-02T22:51:50.590Z,11.27
2023-11-02T22:54:21.559Z,11.27
2023-11-02T22:56:52.252Z,11.27
2023-11-02T22:59:22.915Z,11.27
2023-11-02T23:01:57.483Z,11.23
2023-11-02T23:04:28.351Z,11.22
2023-11-02T23:06:59.314Z,11.23
2023-11-02T23:09:30.387Z,11.27
2023-11-02T23:12:01.617Z,11.28
2023-11-02T23:14:32.402Z,11.26
2023-11-02T23:17:03.372Z,11.27
2023-11-02T23:19:34.103Z,11.27
2023-11-02T23:22:06.030Z,11.27
2023-11-02T23:24:37.202Z,11.26
2023-11-02T23:27:08.368Z,11.28
2023-11-02T23:29:39.146Z,11.29
2023-11-02T23:32:10.717Z,11.30
2023-11-02T23:34:41.842Z,11.30
2023-11-02T23:37:12.855Z,11.31
2023-11-02T23:39:43.639Z,11.32
2023-11-02T23:42:15.950Z,11.32
2023-11-02T23:44:47.347Z,11.30
2023-11-02T23:47:17.982Z,11.30
2023-11-02T23:49:49.092Z,11.29
2023-11-02T23:52:20.323Z,11.26
2023-11-02T23:54:51.093Z,11.21
2023-11-02T23:57:21.908Z,11.19
2023-11-02T23:59:52.552Z,11.18
